Time;durP1;ratioP1;P1;durP2;ratioP2;P2;SDS_P1;SDS_P2;PMS_P1;PMS_P2;Temp;Humidity;BMP_temperature;BMP_pressure;BME280_temperature;BME280_humidity;BME280_pressure;Samples;Min_cycle;Max_cycle;Signal;HPM_P1;HPM_P2
2022/09/04 00:00:33;;;;;;;4.80;2.13;;;14.40;99.90;;;;;;5106351;27;20482;-79
2022/09/04 00:03:14;;;;;;;3.17;1.90;;;14.40;99.90;;;;;;5105861;27;20456;-80
2022/09/04 00:05:47;;;;;;;1.60;1.50;;;14.30;99.90;;;;;;5103172;27;20468;-81
2022/09/04 00:08:33;;;;;;;2.60;1.50;;;14.40;99.90;;;;;;5090622;28;20958;-77
2022/09/04 00:11:08;;;;;;;1.83;1.73;;;14.30;99.90;;;;;;5112480;27;20548;-77
2022/09/04 00:13:40;;;;;;;1.73;1.53;;;14.30;99.90;;;;;;5090077;28;20516;-77
2022/09/04 00:16:10;;;;;;;2.67;2.47;;;14.20;99.90;;;;;;5104641;27;20475;-77
2022/09/04 00:18:41;;;;;;;2.37;2.17;;;14.30;99.90;;;;;;5098515;27;20456;-78
2022/09/04 00:21:17;;;;;;;9.17;2.93;;;14.30;99.90;;;;;;5092499;27;20541;-77
2022/09/04 00:23:50;;;;;;;2.43;2.23;;;14.40;99.90;;;;;;5103596;27;20538;-77
2022/09/04 00:26:37;;;;;;;4.63;2.37;;;14.40;99.90;;;;;;5098944;27;20524;-77
2022/09/04 00:29:12;;;;;;;4.10;2.80;;;14.50;99.90;;;;;;5104599;27;20462;-77
2022/09/04 00:31:44;;;;;;;8.37;2.47;;;14.50;99.90;;;;;;5099553;28;20482;-76
2022/09/04 00:34:23;;;;;;;3.53;2.33;;;14.60;99.90;;;;;;5099626;28;20531;-77
2022/09/04 00:36:57;;;;;;;3.77;1.80;;;14.50;99.90;;;;;;5097452;28;20447;-77
2022/09/04 00:39:33;;;;;;;6.10;3.10;;;14.60;99.90;;;;;;5094169;28;20490;-79
2022/09/04 00:42:13;;;;;;;2.70;2.50;;;14.60;99.90;;;;;;5094550;28;20563;-80
2022/09/04 00:45:05;;;;;;;2.73;2.50;;;14.70;99.90;;;;;;5096097;28;20507;-77
2022/09/04 00:48:00;;;;;;;16.00;3.27;;;14.60;99.90;;;;;;5094306;28;20456;-81
2022/09/04 00:51:10;;;;;;;2.27;2.10;;;14.50;99.90;;;;;;5097373;28;20986;-77
2022/09/04 00:54:01;;;;;;;4.30;2.50;;;14.50;99.90;;;;;;5086887;28;21209;-77
2022/09/04 00:56:53;;;;;;;3.87;2.17;;;14.40;99.90;;;;;;5073614;28;20488;-79
2022/09/04 00:59:38;;;;;;;2.40;2.20;;;14.40;99.90;;;;;;5098393;28;22207;-79
2022/09/04 01:02:15;;;;;;;10.20;2.93;;;14.40;99.90;;;;;;5094878;28;20511;-79
2022/09/04 01:04:51;;;;;;;2.97;2.70;;;14.40;99.90;;;;;;5094223;28;20461;-77
2022/09/04 01:07:36;;;;;;;9.90;2.70;;;14.40;99.90;;;;;;5097424;28;20489;-80
2022/09/04 01:10:24;;;;;;;6.33;3.40;;;14.40;99.90;;;;;;5095133;28;20544;-77
2022/09/04 01:12:59;;;;;;;9.10;2.80;;;14.40;99.90;;;;;;5095011;28;20504;-77
2022/09/04 01:15:36;;;;;;;2.80;2.60;;;14.40;99.90;;;;;;5094311;28;20972;-77
2022/09/04 01:18:09;;;;;;;4.93;4.43;;;14.50;99.90;;;;;;5097015;28;20457;-81
2022/09/04 01:20:52;;;;;;;4.57;3.20;;;14.60;99.90;;;;;;5096898;28;20484;-76
2022/09/04 01:23:30;;;;;;;6.60;3.43;;;14.60;99.90;;;;;;5095527;28;20519;-78
2022/09/04 01:26:19;;;;;;;8.47;3.77;;;14.60;99.90;;;;;;5091904;28;20493;-78
2022/09/04 01:28:58;;;;;;;16.00;5.50;;;14.70;99.90;;;;;;5096158;28;20543;-77
2022/09/04 01:31:36;;;;;;;9.20;3.47;;;14.70;99.90;;;;;;5093433;28;20465;-77
2022/09/04 01:34:18;;;;;;;19.30;4.57;;;14.70;99.90;;;;;;5095413;28;20496;-77
2022/09/04 01:36:53;;;;;;;29.23;6.57;;;14.70;99.90;;;;;;5094390;28;20455;-80
2022/09/04 01:39:22;;;;;;;22.43;7.07;;;14.80;99.90;;;;;;5097564;28;20491;-80
2022/09/04 01:41:56;;;;;;;6.93;4.03;;;14.80;99.90;;;;;;5092222;28;20931;-77
2022/09/04 01:44:24;;;;;;;4.87;4.30;;;14.70;99.90;;;;;;5096784;28;20459;-78
2022/09/04 01:47:03;;;;;;;5.80;3.43;;;14.80;99.90;;;;;;5096137;28;20492;-79
2022/09/04 01:49:37;;;;;;;7.60;4.57;;;14.80;99.90;;;;;;5095046;28;20947;-79
2022/09/04 01:52:14;;;;;;;8.77;4.47;;;14.90;99.90;;;;;;5098732;27;20466;-77
2022/09/04 01:54:51;;;;;;;12.33;3.83;;;15.00;99.90;;;;;;5102206;27;20463;-81
2022/09/04 01:57:31;;;;;;;12.27;4.23;;;15.00;99.90;;;;;;5097767;28;20466;-77
2022/09/04 02:00:06;;;;;;;20.83;5.17;;;15.10;99.90;;;;;;5097608;27;20500;-77
2022/09/04 02:02:48;;;;;;;15.00;5.67;;;15.10;99.90;;;;;;5101926;27;20473;-80
2022/09/04 02:05:20;;;;;;;4.67;4.03;;;14.90;99.90;;;;;;5100422;27;20462;-77
2022/09/04 02:07:53;;;;;;;10.27;4.37;;;14.70;99.90;;;;;;5108407;27;20460;-78
2022/09/04 02:10:30;;;;;;;23.47;5.83;;;14.80;99.90;;;;;;5115650;28;20467;-77
2022/09/04 02:13:09;;;;;;;7.47;3.90;;;14.70;99.90;;;;;;5117171;27;20465;-77
2022/09/04 02:15:43;;;;;;;8.30;3.87;;;14.60;99.90;;;;;;5116301;28;20532;-77
2022/09/04 02:18:19;;;;;;;13.80;3.77;;;14.60;99.90;;;;;;5105787;28;20496;-79
2022/09/04 02:21:04;;;;;;;6.87;3.77;;;14.60;99.90;;;;;;5104078;27;20494;-77
2022/09/04 02:23:39;;;;;;;9.23;4.53;;;14.50;99.90;;;;;;5115821;27;20484;-78
2022/09/04 02:26:13;;;;;;;4.40;3.50;;;14.60;99.90;;;;;;5112408;27;20551;-77
2022/09/04 02:28:50;;;;;;;9.80;4.47;;;14.60;99.90;;;;;;5107137;27;20460;-78
2022/09/04 02:31:30;;;;;;;8.40;3.17;;;14.60;99.90;;;;;;5098244;27;20658;-77
2022/09/04 02:34:06;;;;;;;8.33;4.10;;;14.70;99.90;;;;;;5107976;27;20459;-77
2022/09/04 02:36:41;;;;;;;11.80;3.03;;;14.80;99.90;;;;;;5110954;27;20517;-81
2022/09/04 02:39:17;;;;;;;5.00;3.33;;;14.80;99.90;;;;;;5093913;27;20474;-77
2022/09/04 02:41:53;;;;;;;4.70;3.20;;;14.70;99.90;;;;;;5105901;28;20497;-77
2022/09/04 02:44:33;;;;;;;20.10;3.93;;;14.60;99.90;;;;;;5103585;27;20519;-77
2022/09/04 02:47:11;;;;;;;5.67;2.47;;;14.50;99.90;;;;;;5106999;27;20514;-81
2022/09/04 02:49:51;;;;;;;5.40;2.00;;;14.50;99.90;;;;;;5104338;28;20464;-77
2022/09/04 02:52:32;;;;;;;25.27;5.03;;;14.60;99.90;;;;;;5113388;27;20527;-77
2022/09/04 02:55:14;;;;;;;11.90;2.90;;;14.40;99.90;;;;;;5100883;27;20597;-81
2022/09/04 02:57:55;;;;;;;21.20;4.23;;;14.20;99.90;;;;;;5103521;28;21044;-76
2022/09/04 03:00:39;;;;;;;12.27;3.50;;;14.20;99.90;;;;;;5100949;27;20589;-79
2022/09/04 03:03:12;;;;;;;1.97;1.70;;;14.30;99.90;;;;;;5092468;27;20957;-80
2022/09/04 03:05:45;;;;;;;3.60;3.30;;;14.20;99.90;;;;;;5105491;27;20467;-77
2022/09/04 03:08:16;;;;;;;9.33;3.23;;;14.20;99.90;;;;;;5106836;27;20445;-77
2022/09/04 03:10:48;;;;;;;5.00;2.57;;;14.20;99.90;;;;;;5101373;27;20543;-81
2022/09/04 03:13:22;;;;;;;4.80;2.30;;;14.20;99.90;;;;;;5115962;27;20604;-79
2022/09/04 03:15:55;;;;;;;5.70;2.53;;;14.30;99.90;;;;;;5104478;27;20468;-77
2022/09/04 03:18:27;;;;;;;3.50;2.97;;;14.20;99.90;;;;;;5112520;27;21106;-77
2022/09/04 03:20:59;;;;;;;3.43;2.90;;;14.20;99.90;;;;;;5101192;27;20563;-76
2022/09/04 03:23:37;;;;;;;5.83;2.50;;;14.20;99.90;;;;;;5097798;27;20488;-77
2022/09/04 03:26:23;;;;;;;4.20;2.77;;;14.00;99.90;;;;;;5101658;27;20484;-77
2022/09/04 03:29:02;;;;;;;5.30;3.00;;;14.10;99.90;;;;;;5099921;27;20465;-77
2022/09/04 03:31:40;;;;;;;4.50;2.27;;;14.00;99.90;;;;;;5098413;27;20997;-77
2022/09/04 03:34:20;;;;;;;5.10;3.47;;;14.10;99.90;;;;;;5098860;27;20457;-80
2022/09/04 03:37:01;;;;;;;3.77;2.70;;;14.10;99.90;;;;;;5100965;27;20516;-77
2022/09/04 03:39:37;;;;;;;1.50;1.40;;;14.30;99.90;;;;;;5097005;27;21089;-77
2022/09/04 03:42:11;;;;;;;4.13;2.60;;;14.10;99.90;;;;;;5100439;27;20482;-79
2022/09/04 03:44:49;;;;;;;2.03;1.87;;;14.10;99.90;;;;;;5102050;27;20463;-80
2022/09/04 03:47:28;;;;;;;2.37;1.80;;;14.20;99.90;;;;;;5098748;27;20463;-80
2022/09/04 03:50:08;;;;;;;21.03;3.43;;;14.20;99.90;;;;;;5104024;27;20467;-77
2022/09/04 03:52:46;;;;;;;8.20;3.50;;;14.30;99.90;;;;;;5104529;27;20464;-77
2022/09/04 03:55:47;;;;;;;19.80;3.77;;;14.30;99.90;;;;;;5105426;27;21213;-77
2022/09/04 03:58:24;;;;;;;3.87;2.00;;;14.40;99.90;;;;;;5091541;27;20450;-77
2022/09/04 04:00:58;;;;;;;6.30;2.80;;;14.30;99.90;;;;;;5120712;27;20481;-78
2022/09/04 04:03:51;;;;;;;2.30;2.10;;;14.30;99.90;;;;;;5110372;27;20457;-77
2022/09/04 04:06:26;;;;;;;1.93;1.50;;;14.10;99.90;;;;;;5089322;28;20465;-77
2022/09/04 04:09:17;;;;;;;1.93;1.53;;;14.10;99.90;;;;;;5091264;28;20541;-77
2022/09/04 04:12:05;;;;;;;3.43;1.60;;;14.00;99.90;;;;;;5086062;28;20482;-81
2022/09/04 04:14:44;;;;;;;1.67;1.40;;;13.90;99.90;;;;;;5096019;27;20441;-77
2022/09/04 04:17:33;;;;;;;1.13;1.03;;;13.80;99.90;;;;;;5093407;27;20482;-80
2022/09/04 04:20:16;;;;;;;1.60;1.37;;;13.80;99.90;;;;;;5102319;27;20903;-77
2022/09/04 04:23:06;;;;;;;0.93;0.80;;;13.70;99.90;;;;;;5104579;27;20521;-79
2022/09/04 04:25:49;;;;;;;1.60;1.10;;;13.60;99.90;;;;;;5101678;27;20457;-80
2022/09/04 04:28:31;;;;;;;1.60;1.50;;;13.50;99.90;;;;;;5104177;28;20479;-81
2022/09/04 04:31:09;;;;;;;2.23;1.40;;;13.50;99.90;;;;;;5101334;27;20950;-82
2022/09/04 04:33:54;;;;;;;0.90;0.90;;;13.60;99.90;;;;;;5103994;28;20465;-77
2022/09/04 04:36:33;;;;;;;1.53;1.33;;;13.50;99.90;;;;;;5104232;27;20484;-77
2022/09/04 04:39:23;;;;;;;1.27;1.17;;;13.50;99.90;;;;;;5098887;28;20935;-80
2022/09/04 04:42:05;;;;;;;1.17;1.03;;;13.60;99.90;;;;;;5101815;28;20482;-77
2022/09/04 04:48:06;;;;;;;0.80;0.77;;;13.80;99.90;;;;;;5103193;28;20983;-77
2022/09/04 04:50:44;;;;;;;1.63;1.53;;;13.80;99.90;;;;;;5103081;28;20446;-77
2022/09/04 04:53:20;;;;;;;1.10;1.00;;;13.70;99.90;;;;;;5102125;28;20509;-77
2022/09/04 04:55:55;;;;;;;0.90;0.90;;;13.70;99.90;;;;;;5098914;28;20520;-77
2022/09/04 04:58:43;;;;;;;1.40;1.10;;;13.80;99.90;;;;;;5099874;28;20474;-78
2022/09/04 05:01:17;;;;;;;1.53;0.97;;;13.90;99.90;;;;;;5100935;27;20470;-80
2022/09/04 05:03:57;;;;;;;3.87;1.73;;;14.10;99.90;;;;;;5106268;28;20549;-77
2022/09/04 05:06:33;;;;;;;0.97;0.80;;;14.10;99.90;;;;;;5103462;28;20795;-80
2022/09/04 05:09:12;;;;;;;1.60;1.17;;;14.20;99.90;;;;;;5112656;27;20452;-78
2022/09/04 05:11:49;;;;;;;3.57;0.93;;;14.20;99.90;;;;;;5121334;28;20427;-77
2022/09/04 05:14:29;;;;;;;8.43;1.87;;;14.20;99.90;;;;;;5111021;28;20453;-78
2022/09/04 05:17:05;;;;;;;2.10;0.60;;;14.20;99.90;;;;;;5123651;28;20465;-78
2022/09/04 05:19:40;;;;;;;0.93;0.80;;;14.20;99.90;;;;;;5097071;28;20501;-78
2022/09/04 05:22:17;;;;;;;1.83;0.50;;;14.20;99.90;;;;;;5103222;28;20597;-78
2022/09/04 05:24:55;;;;;;;0.50;0.50;;;14.30;99.90;;;;;;5099599;27;20462;-77
2022/09/04 05:27:41;;;;;;;0.97;0.70;;;14.30;99.90;;;;;;5110973;27;20483;-78
2022/09/04 05:30:14;;;;;;;0.60;0.50;;;14.20;99.90;;;;;;5105197;27;20460;-81
2022/09/04 05:32:49;;;;;;;0.70;0.70;;;14.40;99.90;;;;;;5104622;27;20542;-80
2022/09/04 05:35:24;;;;;;;0.80;0.60;;;14.40;99.90;;;;;;5109600;27;20458;-78
2022/09/04 05:37:59;;;;;;;0.70;0.70;;;14.50;99.90;;;;;;5102726;27;21050;-80
2022/09/04 05:40:36;;;;;;;0.60;0.60;;;14.50;99.90;;;;;;5100746;27;20509;-79
2022/09/04 05:43:16;;;;;;;0.50;0.40;;;14.50;99.90;;;;;;5111412;27;20454;-78
2022/09/04 05:45:58;;;;;;;0.70;0.53;;;14.70;99.90;;;;;;5099721;27;21130;-79
2022/09/04 05:48:30;;;;;;;0.97;0.60;;;14.90;99.90;;;;;;5106999;27;20862;-78
2022/09/04 05:51:11;;;;;;;1.27;0.60;;;15.00;99.90;;;;;;5115466;27;20488;-77
2022/09/04 05:54:02;;;;;;;1.10;0.80;;;15.40;99.90;;;;;;5109818;27;20523;-78
2022/09/04 05:56:46;;;;;;;2.03;1.10;;;15.60;99.90;;;;;;5105631;27;20455;-80
2022/09/04 05:59:30;;;;;;;1.07;0.70;;;15.60;99.90;;;;;;5096845;27;20466;-81
2022/09/04 06:02:21;;;;;;;2.53;0.70;;;15.60;99.90;;;;;;5105966;27;20850;-80
2022/09/04 06:05:05;;;;;;;1.17;0.70;;;15.50;99.90;;;;;;5104955;27;20465;-78
2022/09/04 06:07:39;;;;;;;0.93;0.70;;;15.70;99.90;;;;;;5099519;27;20968;-78
2022/09/04 06:10:14;;;;;;;0.80;0.80;;;15.50;99.90;;;;;;5101106;27;21504;-82
2022/09/04 06:13:08;;;;;;;0.67;0.60;;;15.40;99.90;;;;;;5103551;27;20467;-81
2022/09/04 06:15:40;;;;;;;1.63;0.63;;;15.30;99.90;;;;;;5097850;27;21303;-82
2022/09/04 06:18:38;;;;;;;0.83;0.60;;;15.10;99.90;;;;;;5104768;27;20979;-78
2022/09/04 06:21:34;;;;;;;0.80;0.70;;;15.20;99.90;;;;;;5094267;28;21005;-78
2022/09/04 06:24:17;;;;;;;0.60;0.60;;;15.50;99.90;;;;;;5103057;27;21027;-79
2022/09/04 06:27:12;;;;;;;0.60;0.53;;;15.70;99.90;;;;;;5102260;28;20531;-78
2022/09/04 06:30:05;;;;;;;0.67;0.60;;;15.70;99.90;;;;;;5102390;27;20468;-78
2022/09/04 06:33:02;;;;;;;0.60;0.50;;;15.80;99.90;;;;;;5098084;27;20451;-81
2022/09/04 06:35:51;;;;;;;0.70;0.60;;;16.00;99.90;;;;;;5114078;27;20551;-77
2022/09/04 06:38:36;;;;;;;0.50;0.50;;;16.00;99.90;;;;;;5097103;27;20532;-81
2022/09/04 06:41:20;;;;;;;1.37;0.70;;;16.10;99.90;;;;;;5104033;27;20496;-78
2022/09/04 06:43:56;;;;;;;0.80;0.70;;;16.30;99.90;;;;;;5112932;27;20457;-78
2022/09/04 06:46:33;;;;;;;2.57;0.63;;;16.50;99.90;;;;;;5106753;27;20514;-78
2022/09/04 06:49:08;;;;;;;3.70;0.60;;;16.70;99.90;;;;;;5109692;27;20457;-79
2022/09/04 06:51:51;;;;;;;0.50;0.50;;;16.70;99.90;;;;;;5102929;27;20566;-78
2022/09/04 06:54:34;;;;;;;0.80;0.70;;;16.80;99.90;;;;;;5098073;27;20476;-78
2022/09/04 06:57:20;;;;;;;0.50;0.50;;;16.80;99.90;;;;;;5100894;27;20465;-78
2022/09/04 07:00:09;;;;;;;0.90;0.60;;;16.70;99.90;;;;;;5100239;27;21034;-78
2022/09/04 07:02:58;;;;;;;0.70;0.70;;;16.70;99.90;;;;;;5093873;27;20521;-80
2022/09/04 07:05:31;;;;;;;0.70;0.63;;;16.70;99.90;;;;;;5112908;27;20500;-78
2022/09/04 07:08:09;;;;;;;1.33;0.60;;;16.90;99.90;;;;;;5097896;27;20469;-78
2022/09/04 07:10:43;;;;;;;2.10;0.70;;;17.00;99.90;;;;;;5106447;27;20480;-79
2022/09/04 07:13:59;;;;;;;2.10;0.70;;;17.10;99.90;;;;;;5099004;27;20504;-79
2022/09/04 07:16:37;;;;;;;0.53;0.40;;;17.20;99.90;;;;;;5016386;28;20457;-78
2022/09/04 07:19:37;;;;;;;1.53;0.93;;;17.20;99.90;;;;;;5097119;27;20459;-78
2022/09/04 07:22:22;;;;;;;0.50;0.47;;;17.20;99.90;;;;;;5088716;27;21056;-78
2022/09/04 07:25:03;;;;;;;0.97;0.90;;;17.30;99.90;;;;;;5098733;27;21159;-77
2022/09/04 07:27:55;;;;;;;0.70;0.50;;;17.40;99.90;;;;;;5104775;27;20593;-78
2022/09/04 07:30:25;;;;;;;0.80;0.60;;;17.50;99.90;;;;;;5102387;27;20462;-81
2022/09/04 07:32:57;;;;;;;0.80;0.60;;;17.60;99.90;;;;;;5101473;28;20549;-78
2022/09/04 07:35:33;;;;;;;0.80;0.70;;;17.80;99.90;;;;;;5108473;27;20468;-79
2022/09/04 07:38:14;;;;;;;1.60;0.70;;;17.90;99.90;;;;;;5100514;27;20829;-78
2022/09/04 07:40:44;;;;;;;0.97;0.73;;;17.80;99.90;;;;;;5100450;27;20535;-80
2022/09/04 07:43:20;;;;;;;1.23;0.70;;;17.80;99.90;;;;;;5102929;27;20569;-82
2022/09/04 07:45:53;;;;;;;0.70;0.70;;;17.70;99.90;;;;;;5099361;27;20472;-78
2022/09/04 07:48:28;;;;;;;1.00;0.80;;;17.80;99.90;;;;;;5099549;27;20511;-82
2022/09/04 07:51:08;;;;;;;0.80;0.80;;;17.70;99.90;;;;;;5099380;27;20496;-78
2022/09/04 07:54:28;;;;;;;0.93;0.93;;;17.80;99.90;;;;;;5083135;27;21407;-81
2022/09/04 07:57:33;;;;;;;1.33;1.23;;;17.90;99.90;;;;;;5012508;28;20511;-78
2022/09/04 08:00:07;;;;;;;1.23;1.10;;;17.80;99.90;;;;;;4989407;28;20464;-79
2022/09/04 08:02:56;;;;;;;1.60;1.50;;;17.90;99.90;;;;;;5079722;27;20603;-79
2022/09/04 08:05:26;;;;;;;1.70;1.60;;;17.90;99.90;;;;;;5100390;27;20458;-78
2022/09/04 08:08:32;;;;;;;1.33;1.23;;;18.00;99.90;;;;;;5103739;27;20461;-81
2022/09/04 08:11:34;;;;;;;3.57;1.33;;;17.80;99.90;;;;;;5078641;28;21031;-81
2022/09/04 08:14:23;;;;;;;2.20;2.00;;;17.90;99.90;;;;;;5117829;27;20459;-79
2022/09/04 08:17:03;;;;;;;2.50;1.90;;;17.80;99.90;;;;;;5117899;27;20453;-78
2022/09/04 08:19:44;;;;;;;2.17;1.90;;;17.80;99.90;;;;;;5109891;27;20590;-79
2022/09/04 08:22:20;;;;;;;3.47;2.50;;;17.80;99.90;;;;;;5101764;27;20517;-79
2022/09/04 08:25:07;;;;;;;1.87;1.73;;;17.70;99.90;;;;;;5107737;27;20538;-78
2022/09/04 08:28:07;;;;;;;2.23;2.10;;;17.70;99.90;;;;;;5106211;27;20489;-78
2022/09/04 08:30:43;;;;;;;2.13;1.93;;;17.90;99.90;;;;;;5098406;27;20477;-78
2022/09/04 08:34:01;;;;;;;2.77;2.50;;;18.00;99.90;;;;;;5104318;27;20465;-79
2022/09/04 08:36:35;;;;;;;1.80;1.70;;;18.00;99.90;;;;;;5104211;27;20462;-80
2022/09/04 08:39:08;;;;;;;1.90;1.77;;;17.90;99.90;;;;;;5100900;28;20485;-80
2022/09/04 08:42:20;;;;;;;2.23;2.03;;;18.00;99.90;;;;;;5098190;28;20469;-83
2022/09/04 08:45:31;;;;;;;2.67;2.47;;;17.90;99.90;;;;;;5098721;27;21015;-78
2022/09/04 08:48:35;;;;;;;3.00;2.70;;;17.80;99.90;;;;;;5097935;28;20454;-81
2022/09/04 08:51:47;;;;;;;3.53;2.57;;;17.80;99.90;;;;;;5096645;28;20954;-77
2022/09/04 08:54:47;;;;;;;2.20;2.00;;;18.30;99.90;;;;;;5098052;28;20507;-78
2022/09/04 08:57:39;;;;;;;2.00;1.70;;;18.50;99.90;;;;;;5093019;28;20453;-79
2022/09/04 09:00:09;;;;;;;2.80;2.60;;;18.40;99.90;;;;;;5097204;28;20469;-80
2022/09/04 09:03:16;;;;;;;1.83;1.70;;;18.30;99.90;;;;;;5089137;28;20526;-79
2022/09/04 09:06:14;;;;;;;2.30;2.10;;;18.30;99.90;;;;;;5098600;28;20461;-80
2022/09/04 09:09:20;;;;;;;2.07;1.97;;;18.20;99.90;;;;;;5098737;28;20530;-79
2022/09/04 09:12:27;;;;;;;2.37;1.63;;;18.30;99.90;;;;;;5102202;28;20815;-80
2022/09/04 09:15:27;;;;;;;1.90;1.10;;;18.10;99.90;;;;;;5102738;28;20866;-79
2022/09/04 09:18:19;;;;;;;1.50;1.37;;;18.30;99.90;;;;;;5107020;28;20449;-79
2022/09/04 09:20:53;;;;;;;2.50;1.57;;;18.30;99.90;;;;;;5098470;27;20463;-81
2022/09/04 09:23:31;;;;;;;2.33;1.97;;;18.80;99.90;;;;;;5093968;28;20487;-80
2022/09/04 09:26:22;;;;;;;1.70;1.20;;;19.00;99.90;;;;;;5107454;28;20521;-82
2022/09/04 09:29:21;;;;;;;1.10;1.00;;;19.00;99.90;;;;;;5094865;28;20458;-80
2022/09/04 09:32:27;;;;;;;2.17;1.40;;;18.80;99.90;;;;;;5097808;28;21068;-79
2022/09/04 09:35:56;;;;;;;1.60;1.50;;;18.80;99.90;;;;;;5097465;28;20463;-79
2022/09/04 09:38:47;;;;;;;1.60;1.20;;;18.90;99.90;;;;;;5053687;28;20470;-80
2022/09/04 09:41:58;;;;;;;1.77;1.57;;;19.50;99.90;;;;;;5048946;28;20473;-79
2022/09/04 09:45:05;;;;;;;1.40;1.30;;;19.80;99.90;;;;;;5098334;28;20465;-79
2022/09/04 09:48:16;;;;;;;1.27;1.17;;;20.50;99.90;;;;;;5099293;28;20534;-79
2022/09/04 09:51:16;;;;;;;1.40;1.30;;;20.40;99.90;;;;;;5097596;28;20519;-79
2022/09/04 09:54:31;;;;;;;0.77;0.77;;;20.60;99.90;;;;;;5094857;28;20864;-79
2022/09/04 09:57:34;;;;;;;0.60;0.60;;;20.70;99.90;;;;;;5091605;28;20456;-80
2022/09/04 10:00:13;;;;;;;1.00;0.70;;;20.90;99.90;;;;;;5095716;28;20465;-83
2022/09/04 10:03:24;;;;;;;0.97;0.50;;;21.10;99.90;;;;;;5100942;28;20576;-82
2022/09/04 10:06:33;;;;;;;0.70;0.60;;;21.50;99.90;;;;;;5031567;28;20935;-80
2022/09/04 10:09:41;;;;;;;0.60;0.60;;;22.00;99.90;;;;;;5027427;28;20506;-80
2022/09/04 10:12:54;;;;;;;1.20;0.80;;;22.00;99.90;;;;;;5094581;27;20513;-84
2022/09/04 10:16:06;;;;;;;0.80;0.70;;;21.30;99.90;;;;;;5099029;28;20468;-80
2022/09/04 10:19:06;;;;;;;1.17;0.70;;;21.60;99.90;;;;;;5084436;28;20876;-80
2022/09/04 10:22:04;;;;;;;0.80;0.70;;;21.70;99.90;;;;;;5099061;28;20550;-81
2022/09/04 10:25:09;;;;;;;0.60;0.50;;;21.30;99.90;;;;;;5105001;27;20492;-82
2022/09/04 10:28:24;;;;;;;0.70;0.50;;;21.20;99.90;;;;;;5098215;27;20487;-81
2022/09/04 10:31:18;;;;;;;0.60;0.60;;;21.20;99.90;;;;;;5105310;27;21002;-80
2022/09/04 10:34:01;;;;;;;0.50;0.50;;;21.60;99.90;;;;;;5103968;27;20465;-79
2022/09/04 10:36:35;;;;;;;0.50;0.43;;;21.40;99.90;;;;;;5107803;27;20461;-81
2022/09/04 10:42:10;;;;;;;1.33;0.60;;;21.30;99.90;;;;;;5102369;28;20963;-79
2022/09/04 10:45:03;;;;;;;0.70;0.70;;;21.30;99.90;;;;;;5100022;27;20466;-80
2022/09/04 10:48:11;;;;;;;0.50;0.50;;;21.50;99.90;;;;;;5109632;27;20490;-80
2022/09/04 10:50:59;;;;;;;0.80;0.57;;;21.20;99.90;;;;;;5033282;28;21099;-84
2022/09/04 10:53:55;;;;;;;0.70;0.60;;;21.40;99.90;;;;;;5093840;27;20465;-80
2022/09/04 10:56:28;;;;;;;0.60;0.50;;;21.50;99.90;;;;;;5103241;27;21097;-80
2022/09/04 10:59:25;;;;;;;0.50;0.50;;;21.80;99.90;;;;;;5101659;27;20466;-80
2022/09/04 11:02:21;;;;;;;0.60;0.60;;;21.90;99.90;;;;;;5097021;28;21129;-79
2022/09/04 11:05:18;;;;;;;0.90;0.90;;;21.50;99.90;;;;;;5100153;27;20516;-80
2022/09/04 11:08:08;;;;;;;0.80;0.60;;;21.90;99.90;;;;;;5097845;27;20453;-80
2022/09/04 11:10:53;;;;;;;0.70;0.70;;;21.70;99.90;;;;;;5095748;27;20462;-80
2022/09/04 11:14:02;;;;;;;0.67;0.67;;;21.90;99.90;;;;;;5109106;27;20472;-82
2022/09/04 11:17:00;;;;;;;0.60;0.60;;;22.00;99.90;;;;;;5127756;27;20429;-80
2022/09/04 11:20:24;;;;;;;0.80;0.60;;;22.20;99.90;;;;;;5108485;28;20443;-79
2022/09/04 11:23:19;;;;;;;0.60;0.50;;;22.60;99.90;;;;;;5097225;27;20485;-82
2022/09/04 11:26:12;;;;;;;0.60;0.47;;;22.80;99.90;;;;;;5083043;27;20522;-80
2022/09/04 11:29:21;;;;;;;0.67;0.57;;;23.10;99.90;;;;;;5099926;28;20458;-81
2022/09/04 11:32:15;;;;;;;0.50;0.40;;;22.80;99.90;;;;;;5077637;27;20602;-80
2022/09/04 11:35:12;;;;;;;0.70;0.60;;;22.50;99.90;;;;;;5094273;28;20463;-82
2022/09/04 11:37:59;;;;;;;0.50;0.50;;;22.60;99.90;;;;;;5101353;27;20466;-80
2022/09/04 11:41:03;;;;;;;2.70;0.70;;;22.90;99.90;;;;;;5102492;27;20462;-83
2022/09/04 11:44:18;;;;;;;0.50;0.50;;;23.00;99.90;;;;;;5102029;27;20989;-81
2022/09/04 11:47:31;;;;;;;0.80;0.60;;;22.90;99.90;;;;;;5102346;28;21041;-80
2022/09/04 11:50:23;;;;;;;0.50;0.50;;;22.90;99.90;;;;;;5033585;28;20457;-80
2022/09/04 11:53:15;;;;;;;0.50;0.50;;;23.10;99.90;;;;;;5099508;27;20466;-80
2022/09/04 11:56:08;;;;;;;1.10;0.90;;;23.10;99.90;;;;;;5104317;27;20469;-81
2022/09/04 11:58:53;;;;;;;0.60;0.60;;;23.20;99.90;;;;;;5097444;28;20470;-80
2022/09/04 12:01:38;;;;;;;0.63;0.50;;;23.50;99.90;;;;;;5097349;27;20527;-83
2022/09/04 12:04:39;;;;;;;0.50;0.50;;;23.40;99.90;;;;;;5100995;27;20485;-81
2022/09/04 12:07:20;;;;;;;0.50;0.50;;;23.30;99.90;;;;;;5093934;27;20490;-81
2022/09/04 12:10:26;;;;;;;0.77;0.50;;;23.50;99.90;;;;;;5100285;27;20466;-79
2022/09/04 12:13:13;;;;;;;0.50;0.40;;;23.70;99.90;;;;;;5097592;27;20541;-79
2022/09/04 12:16:00;;;;;;;0.50;0.50;;;23.50;99.90;;;;;;5103465;27;20461;-81
2022/09/04 12:19:10;;;;;;;0.50;0.40;;;23.60;99.90;;;;;;5096205;27;20530;-84
2022/09/04 12:22:22;;;;;;;0.70;0.70;;;23.50;99.90;;;;;;5091621;27;20859;-78
2022/09/04 12:25:12;;;;;;;0.77;0.70;;;23.60;99.90;;;;;;5059469;27;21011;-79
2022/09/04 12:28:15;;;;;;;0.53;0.50;;;23.40;99.90;;;;;;5090055;27;20887;-83
2022/09/04 12:31:02;;;;;;;0.50;0.40;;;23.50;99.90;;;;;;5095174;27;20544;-80
2022/09/04 12:33:51;;;;;;;0.60;0.50;;;23.20;99.90;;;;;;5104484;27;20445;-81
2022/09/04 12:36:39;;;;;;;1.27;0.50;;;23.60;99.90;;;;;;5095602;27;20474;-85
2022/09/04 12:39:49;;;;;;;1.00;0.50;;;23.50;99.90;;;;;;5088158;28;20507;-82
2022/09/04 12:42:24;;;;;;;0.50;0.50;;;24.00;99.90;;;;;;5007027;28;20466;-83
2022/09/04 12:45:02;;;;;;;0.77;0.70;;;24.20;99.90;;;;;;5077559;28;20481;-81
2022/09/04 12:47:44;;;;;;;0.73;0.73;;;24.20;99.90;;;;;;5099919;27;20474;-81
2022/09/04 12:50:32;;;;;;;0.50;0.40;;;24.10;99.90;;;;;;5099296;28;20458;-79
2022/09/04 12:53:30;;;;;;;0.60;0.50;;;24.00;99.90;;;;;;5102593;27;20442;-81
2022/09/04 12:56:09;;;;;;;0.60;0.60;;;23.90;99.90;;;;;;5095753;28;20624;-79
2022/09/04 12:58:52;;;;;;;3.60;1.00;;;24.00;99.90;;;;;;5105061;28;20465;-81
2022/09/04 13:01:35;;;;;;;0.70;0.43;;;23.60;99.90;;;;;;5099885;28;20469;-78
2022/09/04 13:04:14;;;;;;;0.50;0.50;;;23.50;99.90;;;;;;5099586;28;20466;-83
2022/09/04 13:06:52;;;;;;;0.50;0.50;;;23.40;99.90;;;;;;5095726;28;20450;-79
2022/09/04 13:09:27;;;;;;;0.60;0.47;;;23.60;99.90;;;;;;5100338;28;20511;-83
2022/09/04 13:12:07;;;;;;;0.70;0.50;;;23.80;99.90;;;;;;5096550;28;20461;-83
2022/09/04 13:14:52;;;;;;;3.33;1.03;;;23.80;99.90;;;;;;5101011;28;20450;-79
2022/09/04 13:17:27;;;;;;;0.80;0.80;;;23.80;99.90;;;;;;5100329;28;20461;-79
2022/09/04 13:20:04;;;;;;;0.90;0.90;;;23.80;99.90;;;;;;5092715;28;20514;-79
2022/09/04 13:22:41;;;;;;;0.93;0.60;;;23.90;99.90;;;;;;5105321;28;20480;-80
2022/09/04 13:25:15;;;;;;;0.60;0.50;;;23.80;99.90;;;;;;5103528;28;20548;-82
2022/09/04 13:27:57;;;;;;;0.60;0.60;;;23.80;99.90;;;;;;5101592;28;21178;-83
2022/09/04 13:30:25;;;;;;;0.63;0.60;;;23.90;99.90;;;;;;5104429;28;21223;-78
2022/09/04 13:33:21;;;;;;;0.60;0.60;;;23.90;99.90;;;;;;5102452;28;20457;-82
2022/09/04 13:36:05;;;;;;;0.60;0.60;;;23.90;99.90;;;;;;5099100;28;20878;-78
2022/09/04 13:39:00;;;;;;;0.60;0.60;;;23.70;99.90;;;;;;5098954;28;20483;-82
2022/09/04 13:42:06;;;;;;;0.77;0.50;;;23.70;99.90;;;;;;5103670;28;20505;-81
2022/09/04 13:44:54;;;;;;;0.60;0.60;;;23.70;99.90;;;;;;5102327;28;20485;-79
2022/09/04 13:47:23;;;;;;;0.70;0.70;;;23.90;99.90;;;;;;5102524;27;20542;-82
2022/09/04 13:49:55;;;;;;;0.90;0.90;;;24.20;99.90;;;;;;5106507;27;20514;-79
2022/09/04 13:52:29;;;;;;;0.80;0.80;;;24.30;99.90;;;;;;5119377;27;20810;-79
2022/09/04 13:55:01;;;;;;;0.70;0.50;;;24.30;99.90;;;;;;5107605;27;20519;-78
2022/09/04 13:57:35;;;;;;;0.53;0.53;;;24.20;99.90;;;;;;5102646;27;20457;-79
2022/09/04 14:00:04;;;;;;;0.80;0.70;;;24.00;99.90;;;;;;5102664;27;20515;-82
2022/09/04 14:02:33;;;;;;;1.20;0.60;;;24.00;99.90;;;;;;5103249;27;20457;-85
2022/09/04 14:05:13;;;;;;;0.93;0.50;;;24.10;99.90;;;;;;5100465;27;20568;-81
2022/09/04 14:07:46;;;;;;;0.70;0.60;;;24.20;99.90;;;;;;5103855;27;20470;-81
2022/09/04 14:10:19;;;;;;;0.60;0.60;;;24.40;99.90;;;;;;5112360;27;20500;-80
2022/09/04 14:13:12;;;;;;;1.37;0.50;;;24.20;99.90;;;;;;5111159;27;20464;-78
2022/09/04 14:15:57;;;;;;;0.60;0.57;;;24.30;99.90;;;;;;5114721;27;20481;-80
2022/09/04 14:18:36;;;;;;;0.90;0.80;;;24.60;99.90;;;;;;5112730;27;20457;-80
2022/09/04 14:21:10;;;;;;;0.70;0.50;;;24.60;99.90;;;;;;5105931;27;20945;-80
2022/09/04 14:23:48;;;;;;;0.50;0.50;;;24.80;99.90;;;;;;5091456;27;21076;-83